createdAt,value
2023-11-18T00:00:44.322Z,40.9
2023-11-18T00:01:58.616Z,41.2
2023-11-18T00:03:12.909Z,41.2
2023-11-18T00:04:27.202Z,40.7
2023-11-18T00:05:41.496Z,40.7
2023-11-18T00:06:55.789Z,43.8
2023-11-18T00:08:10.082Z,40.9
2023-11-18T00:09:24.375Z,41.2
2023-11-18T00:10:38.669Z,40.9
2023-11-18T00:11:52.962Z,41.4
2023-11-18T00:13:06.271Z,41.2
2023-11-18T00:14:20.565Z,41.2
2023-11-18T00:15:34.858Z,43.1
2023-11-18T00:16:49.152Z,40.9
2023-11-18T00:18:03.445Z,41.4
2023-11-18T00:19:17.738Z,41.2
2023-11-18T00:20:32.031Z,40.7
2023-11-18T00:21:46.325Z,41
2023-11-18T00:23:00.619Z,40.9
2023-11-18T00:24:14.912Z,40.9
2023-11-18T00:25:29.205Z,41.2
2023-11-18T00:26:43.499Z,41
2023-11-18T00:27:57.792Z,41.5
2023-11-18T00:29:11.101Z,41.5
2023-11-18T00:30:25.394Z,41.8
2023-11-18T00:31:39.688Z,41
2023-11-18T00:32:53.981Z,41.2
2023-11-18T00:34:08.274Z,40.7
2023-11-18T00:35:22.567Z,40.9
2023-11-18T00:36:35.882Z,41.7
2023-11-18T00:37:50.175Z,41.2
2023-11-18T00:39:04.469Z,41.4
2023-11-18T00:40:18.762Z,42.7
2023-11-18T00:41:33.055Z,42.7
2023-11-18T00:42:47.348Z,41.7
2023-11-18T00:44:01.643Z,42
2023-11-18T00:45:15.936Z,41.8
2023-11-18T00:46:30.229Z,41.2
2023-11-18T00:47:44.522Z,41.4
2023-11-18T00:48:58.816Z,42.8
2023-11-18T00:50:13.109Z,41.8
2023-11-18T00:51:27.402Z,41.8
2023-11-18T00:52:40.712Z,41
2023-11-18T00:53:55.005Z,41.7
2023-11-18T00:55:09.298Z,41.4
2023-11-18T00:56:23.592Z,41.5
2023-11-18T00:57:37.885Z,43.1
2023-11-18T00:58:52.178Z,41.2
2023-11-18T01:00:06.472Z,40.9
2023-11-18T01:01:20.765Z,41.7
2023-11-18T01:02:35.058Z,41.4
2023-11-18T01:03:49.352Z,41.7
2023-11-18T01:05:03.645Z,41.5
2023-11-18T01:06:17.938Z,41.5
2023-11-18T01:07:32.231Z,41
2023-11-18T01:08:45.541Z,41.5
2023-11-18T01:09:59.834Z,41.4
2023-11-18T01:11:14.128Z,42.3
2023-11-18T01:12:28.421Z,43.1
2023-11-18T01:13:42.714Z,43.5
2023-11-18T01:14:57.007Z,42.3
2023-11-18T01:16:11.300Z,42.5
2023-11-18T01:17:25.594Z,41.5
2023-11-18T01:18:39.887Z,43.5
2023-11-18T01:19:54.180Z,42.7
2023-11-18T01:21:08.474Z,41.4
2023-11-18T01:22:22.767Z,41.2
2023-11-18T01:23:37.060Z,41.4
2023-11-18T01:24:50.369Z,41.4
2023-11-18T01:26:04.663Z,41
2023-11-18T01:27:18.956Z,41
2023-11-18T01:28:33.249Z,41
2023-11-18T01:29:47.542Z,41.2
2023-11-18T01:31:01.836Z,40.9
2023-11-18T01:32:16.129Z,43.3
2023-11-18T01:33:30.423Z,40.9
2023-11-18T01:34:44.716Z,40.2
2023-11-18T01:35:59.009Z,40.4
2023-11-18T01:37:13.303Z,40.4
2023-11-18T01:38:27.596Z,40.7
2023-11-18T01:39:41.889Z,40.9
2023-11-18T01:40:55.199Z,40.2
2023-11-18T01:42:09.492Z,40.2
2023-11-18T01:43:23.786Z,40.2
2023-11-18T01:44:38.079Z,40.2
2023-11-18T01:45:52.372Z,40.2
2023-11-18T01:47:06.665Z,40.2
2023-11-18T01:48:20.959Z,39.7
2023-11-18T01:49:35.252Z,39.6
2023-11-18T01:50:49.545Z,39.6
2023-11-18T01:52:03.839Z,39.6
2023-11-18T01:53:18.132Z,39.9
2023-11-18T01:54:32.426Z,39.1
2023-11-18T01:55:46.719Z,39.6
2023-11-18T01:57:00.029Z,39.6
2023-11-18T01:58:14.322Z,39.7
2023-11-18T01:59:28.615Z,39.4
2023-11-18T02:00:42.910Z,39.6
2023-11-18T02:03:11.496Z,39.1
2023-11-18T02:05:40.083Z,39.1
2023-11-18T02:06:54.377Z,38.9
2023-11-18T02:08:08.670Z,40.9
2023-11-18T02:09:22.963Z,38.8
2023-11-18T02:10:37.257Z,38.5
2023-11-18T02:11:51.550Z,37.7
2023-11-18T02:13:04.860Z,37.5
2023-11-18T02:14:19.153Z,38.3
2023-11-18T02:15:33.447Z,39.1
2023-11-18T02:16:47.740Z,38
2023-11-18T02:18:02.034Z,38.3
2023-11-18T02:20:30.622Z,39.9
2023-11-18T02:21:43.936Z,39.4
2023-11-18T02:22:57.246Z,39.6
2023-11-18T02:24:11.539Z,39.7
2023-11-18T02:25:25.833Z,40.1
2023-11-18T02:26:40.126Z,40.6
2023-11-18T02:27:54.421Z,42.2
2023-11-18T02:29:08.716Z,40.4
2023-11-18T02:30:23.009Z,40.9
2023-11-18T02:31:37.303Z,41
2023-11-18T02:32:51.596Z,41
2023-11-18T02:34:04.911Z,43.6
2023-11-18T02:35:18.220Z,41.2
2023-11-18T02:36:32.515Z,41.4
2023-11-18T02:37:46.808Z,41.4
2023-11-18T02:40:15.395Z,41.2
2023-11-18T02:41:29.689Z,41.4
2023-11-18T02:42:43.982Z,41.7
2023-11-18T02:43:58.276Z,43.9
2023-11-18T02:45:12.569Z,41.5
2023-11-18T02:46:26.863Z,42.7
2023-11-18T02:48:55.450Z,41.5
2023-11-18T02:50:08.764Z,41.2
2023-11-18T02:52:36.368Z,41.4
2023-11-18T02:53:50.661Z,41.4
2023-11-18T02:55:04.955Z,41.7
2023-11-18T02:56:19.248Z,41.5
2023-11-18T02:57:33.542Z,41.2
2023-11-18T02:58:47.835Z,41
2023-11-18T03:00:02.129Z,41.4
2023-11-18T03:01:16.422Z,41
2023-11-18T03:03:45.010Z,41.4
2023-11-18T03:04:58.325Z,48
2023-11-18T03:06:11.634Z,41.5
2023-11-18T03:07:25.928Z,41.2
2023-11-18T03:08:40.221Z,41.8
2023-11-18T03:12:23.101Z,41.4
2023-11-18T03:13:37.395Z,41.4
2023-11-18T03:14:51.689Z,41.4
2023-11-18T03:16:05.982Z,41.4
2023-11-18T03:17:20.277Z,41.5
2023-11-18T03:19:48.864Z,41.2
2023-11-18T03:21:03.158Z,41.4
2023-11-18T03:22:16.467Z,41.7
2023-11-18T03:23:30.761Z,41.7
2023-11-18T03:24:45.054Z,41.5
2023-11-18T03:25:59.348Z,42.3
2023-11-18T03:27:13.642Z,41.4
2023-11-18T03:28:27.936Z,41.4
2023-11-18T03:29:42.229Z,44.4
2023-11-18T03:30:56.523Z,42.7
2023-11-18T03:32:10.817Z,41.8
2023-11-18T03:33:25.111Z,41.8
2023-11-18T03:34:39.404Z,41.2
2023-11-18T03:35:53.698Z,41.4
2023-11-18T03:37:07.992Z,41.4
2023-11-18T03:38:21.307Z,41.5
2023-11-18T03:39:34.621Z,41.8
2023-11-18T03:40:47.931Z,42
2023-11-18T03:42:02.225Z,41.4
2023-11-18T03:43:16.518Z,41.7
2023-11-18T03:44:30.812Z,41.5
2023-11-18T03:45:45.105Z,42
2023-11-18T03:46:59.399Z,41.4
2023-11-18T03:48:13.692Z,41.4
2023-11-18T03:49:27.986Z,41.4
2023-11-18T03:50:42.280Z,41
2023-11-18T03:51:55.595Z,41.5
2023-11-18T03:53:08.909Z,41.4
2023-11-18T03:54:22.219Z,41
2023-11-18T03:55:36.512Z,41
2023-11-18T03:56:50.806Z,40.9
2023-11-18T03:58:05.099Z,40.9
2023-11-18T03:59:19.393Z,41
2023-11-18T04:00:33.686Z,40.6
2023-11-18T04:01:47.980Z,40.7
2023-11-18T04:03:02.274Z,40.9
2023-11-18T04:04:16.567Z,40.7
2023-11-18T04:05:30.860Z,42.7
2023-11-18T04:06:45.154Z,40.7
2023-11-18T04:07:59.447Z,46.5
2023-11-18T04:09:13.741Z,40.9
2023-11-18T04:10:27.050Z,43.1
2023-11-18T04:11:41.344Z,41
2023-11-18T04:12:55.637Z,40.7
2023-11-18T04:14:09.931Z,40.7
2023-11-18T04:15:24.224Z,40.9
2023-11-18T04:16:38.518Z,40.2
2023-11-18T04:17:51.833Z,40.4
2023-11-18T04:19:05.142Z,40.2
2023-11-18T04:20:19.436Z,40.2
2023-11-18T04:21:33.729Z,40.4
2023-11-18T04:22:48.022Z,40.1
2023-11-18T04:24:02.316Z,40.1
2023-11-18T04:25:16.609Z,40.2
2023-11-18T04:26:30.903Z,39.9
2023-11-18T04:27:45.197Z,39.6
2023-11-18T04:28:59.490Z,39.7
2023-11-18T04:30:13.783Z,39.7
2023-11-18T04:31:28.077Z,39.4
2023-11-18T04:32:42.370Z,39.4
2023-11-18T04:33:56.664Z,39.1
2023-11-18T04:35:09.973Z,40.1
2023-11-18T04:36:24.267Z,40.6
2023-11-18T04:37:38.561Z,38.6
2023-11-18T04:38:52.854Z,39.1
2023-11-18T04:40:07.147Z,41.8
2023-11-18T04:41:21.441Z,39.3
2023-11-18T04:42:34.756Z,39.3
2023-11-18T04:43:48.065Z,38
2023-11-18T04:45:01.380Z,38.5
2023-11-18T04:46:15.673Z,43.5
2023-11-18T04:47:29.967Z,38.6
2023-11-18T04:48:44.260Z,38.1
2023-11-18T04:51:12.848Z,37.8
2023-11-18T04:52:27.141Z,38.1
2023-11-18T04:53:41.435Z,39.9
2023-11-18T04:54:55.728Z,38.9
2023-11-18T04:56:10.021Z,40.9
2023-11-18T04:57:24.315Z,38.6
2023-11-18T04:58:38.608Z,39.9
2023-11-18T04:59:52.902Z,38
2023-11-18T05:01:06.211Z,41.2
2023-11-18T05:02:20.505Z,38.5
2023-11-18T05:03:34.799Z,38.6
2023-11-18T05:04:49.092Z,38.9
2023-11-18T05:06:03.386Z,38.1
2023-11-18T05:07:17.679Z,43.8
2023-11-18T05:08:30.994Z,38
2023-11-18T05:09:44.304Z,38.8
2023-11-18T05:10:58.597Z,39.4
2023-11-18T05:12:12.891Z,38.5
2023-11-18T05:13:27.184Z,38.3
2023-11-18T05:14:41.478Z,44.9
2023-11-18T05:15:55.771Z,38.9
2023-11-18T05:17:10.065Z,38.8
2023-11-18T05:18:24.358Z,41.8
2023-11-18T05:19:38.652Z,44.7
2023-11-18T05:20:52.945Z,39.3
2023-11-18T05:22:07.239Z,39.1
2023-11-18T05:23:21.532Z,39.3
2023-11-18T05:24:35.827Z,42.3
2023-11-18T05:25:49.136Z,41.4
2023-11-18T05:27:03.430Z,39.1
2023-11-18T05:28:17.723Z,38.9
2023-11-18T05:29:32.017Z,38.8
2023-11-18T05:30:46.310Z,39.1
2023-11-18T05:32:00.604Z,39.1
2023-11-18T05:33:13.918Z,38.9
2023-11-18T05:34:27.228Z,39.1
2023-11-18T05:35:41.521Z,41
2023-11-18T05:36:55.815Z,41.2
2023-11-18T05:38:10.108Z,43.8
2023-11-18T05:39:24.402Z,39.6
2023-11-18T05:40:38.695Z,47.6
2023-11-18T05:41:52.988Z,39.7
2023-11-18T05:43:07.282Z,39.9
2023-11-18T05:44:21.575Z,39.9
2023-11-18T05:45:35.869Z,46.4
2023-11-18T05:46:50.162Z,40.4
2023-11-18T05:48:04.456Z,39.3
2023-11-18T05:49:18.749Z,40.7
2023-11-18T05:50:32.059Z,41.8
2023-11-18T05:51:46.352Z,39.9
2023-11-18T05:53:00.645Z,40.4
2023-11-18T05:54:14.939Z,40.1
2023-11-18T05:55:29.232Z,47.8
2023-11-18T05:56:43.525Z,40.6
2023-11-18T05:57:57.819Z,40.4
2023-11-18T05:59:12.113Z,40.6
2023-11-18T06:00:26.406Z,40.9
2023-11-18T06:01:40.699Z,49.7
2023-11-18T06:02:54.993Z,40.2
2023-11-18T06:04:09.286Z,42.3
2023-11-18T06:06:37.819Z,40.4
2023-11-18T06:07:51.129Z,40.4
2023-11-18T06:09:05.379Z,40.1
2023-11-18T06:10:19.619Z,40.4
2023-11-18T06:11:33.858Z,40.7
2023-11-18T06:12:48.152Z,40.4
2023-11-18T06:14:02.446Z,43
2023-11-18T06:15:16.696Z,40.9
2023-11-18T06:16:30.936Z,42.5
2023-11-18T06:17:45.175Z,41.4
2023-11-18T06:18:59.469Z,43.3
2023-11-18T06:20:13.720Z,43.3
2023-11-18T06:21:27.959Z,40.9
2023-11-18T06:22:42.199Z,41.4
2023-11-18T06:23:55.454Z,40.2
2023-11-18T06:25:09.693Z,42
2023-11-18T06:26:23.933Z,40.1
2023-11-18T06:27:38.172Z,40.7
2023-11-18T06:28:52.412Z,40.6
2023-11-18T06:30:06.651Z,41
2023-11-18T06:31:20.891Z,40.9
2023-11-18T06:32:35.130Z,42.3
2023-11-18T06:33:49.370Z,40.4
2023-11-18T06:35:03.609Z,40.9
2023-11-18T06:36:17.848Z,41.5
2023-11-18T06:37:32.088Z,40.4
2023-11-18T06:38:46.327Z,44.9
2023-11-18T06:39:59.583Z,40.9
2023-11-18T06:42:28.062Z,43.6
2023-11-18T06:43:42.301Z,40.9
2023-11-18T06:44:56.541Z,41.4
2023-11-18T06:46:10.780Z,42.7
2023-11-18T06:47:25.019Z,41.7
2023-11-18T06:48:39.259Z,40.9
2023-11-18T06:49:53.498Z,41
2023-11-18T06:51:07.737Z,41.2
2023-11-18T06:52:21.977Z,41
2023-11-18T06:53:36.217Z,41.5
2023-11-18T06:54:50.456Z,42.5
2023-11-18T06:56:03.711Z,42.7
2023-11-18T06:57:17.951Z,41.4
2023-11-18T06:58:32.190Z,41.2
2023-11-18T06:59:46.430Z,48
2023-11-18T07:02:14.908Z,41.7
2023-11-18T07:03:29.148Z,41.4
2023-11-18T07:04:43.387Z,47.2
2023-11-18T07:05:57.627Z,43.1
2023-11-18T07:07:11.866Z,40.7
2023-11-18T07:08:26.105Z,42.3
2023-11-18T07:09:40.345Z,41.4
2023-11-18T07:10:54.584Z,40.9
2023-11-18T07:12:07.840Z,41.2
2023-11-18T07:13:22.079Z,41.5
2023-11-18T07:14:36.319Z,41.8
2023-11-18T07:15:50.559Z,42
2023-11-18T07:17:04.799Z,41.8
2023-11-18T07:18:19.038Z,42.3
2023-11-18T07:19:33.277Z,44.7
2023-11-18T07:20:47.517Z,48.9
2023-11-18T07:22:01.756Z,52.3
2023-11-18T07:23:15.995Z,52.8
2023-11-18T07:24:30.235Z,41.8
2023-11-18T07:25:44.474Z,43.1
2023-11-18T07:26:58.714Z,47.3
2023-11-18T07:28:11.969Z,41.7
2023-11-18T07:29:26.209Z,42.7
2023-11-18T07:30:40.448Z,41.8
2023-11-18T07:31:54.687Z,42.3
2023-11-18T07:33:08.927Z,44.3
2023-11-18T07:34:23.166Z,41.7
2023-11-18T07:35:37.406Z,42.8
2023-11-18T07:36:51.645Z,41.5
2023-11-18T07:38:05.885Z,47
2023-11-18T07:39:20.124Z,43.3
2023-11-18T07:40:34.363Z,51.4
2023-11-18T07:41:48.603Z,43.1
2023-11-18T07:43:02.842Z,43.1
2023-11-18T07:44:16.097Z,42.3
2023-11-18T07:45:30.337Z,42.3
2023-11-18T07:46:44.576Z,44.3
2023-11-18T07:47:58.816Z,42.3
2023-11-18T07:49:13.055Z,42
2023-11-18T07:50:27.294Z,42.5
2023-11-18T07:51:41.534Z,48.3
2023-11-18T07:52:55.773Z,48.5
2023-11-18T07:54:10.012Z,42.3
2023-11-18T07:55:24.252Z,43
2023-11-18T07:56:38.491Z,42.2
2023-11-18T07:57:52.730Z,42.5
2023-11-18T07:59:06.970Z,44.1
2023-11-18T08:00:20.225Z,48.1
2023-11-18T08:01:34.464Z,45.4
2023-11-18T08:02:48.704Z,42.3
2023-11-18T08:04:02.943Z,43.3
2023-11-18T08:05:17.182Z,46.4
2023-11-18T08:06:31.421Z,44.1
2023-11-18T08:07:45.661Z,42.8
2023-11-18T08:08:59.900Z,43.8
2023-11-18T08:11:28.379Z,43.9
2023-11-18T08:12:42.618Z,45.1
2023-11-18T08:13:56.857Z,43.9
2023-11-18T08:15:11.096Z,43.6
2023-11-18T08:16:24.352Z,43.3
2023-11-18T08:17:38.591Z,46.2
2023-11-18T08:18:52.831Z,43.9
2023-11-18T08:20:07.070Z,43.8
2023-11-18T08:21:21.309Z,45.1
2023-11-18T08:22:35.549Z,47.2
2023-11-18T08:23:49.788Z,45.1
2023-11-18T08:25:04.027Z,44.9
2023-11-18T08:26:18.266Z,44.9
2023-11-18T08:27:32.505Z,46.2
2023-11-18T08:28:46.745Z,45.2
2023-11-18T08:30:00.984Z,44.7
2023-11-18T08:31:15.223Z,47
2023-11-18T08:32:28.479Z,42.8
2023-11-18T08:33:42.718Z,45.4
2023-11-18T08:34:56.957Z,41.8
2023-11-18T08:36:11.196Z,42.5
2023-11-18T08:37:25.436Z,44.6
2023-11-18T08:38:39.675Z,47
2023-11-18T08:39:53.914Z,44.6
2023-11-18T08:41:08.153Z,43
2023-11-18T08:42:22.393Z,44.9
2023-11-18T08:43:36.632Z,43.1
2023-11-18T08:44:50.871Z,48.1
2023-11-18T08:46:05.110Z,46
2023-11-18T08:47:19.349Z,41.4
2023-11-18T08:48:32.604Z,47.8
2023-11-18T08:49:46.843Z,44.9
2023-11-18T08:51:01.082Z,41.4
2023-11-18T08:52:15.321Z,50.2
2023-11-18T08:53:28.582Z,39.6
2023-11-18T08:55:57.060Z,44.3
2023-11-18T08:57:11.299Z,39.7
2023-11-18T08:58:25.538Z,42.2
2023-11-18T08:59:39.777Z,43.9
2023-11-18T09:00:54.016Z,39.1
2023-11-18T09:02:08.255Z,43.9
2023-11-18T09:03:22.494Z,41.4
2023-11-18T09:04:36.733Z,46.4
2023-11-18T09:05:50.972Z,50.4
2023-11-18T09:07:05.211Z,44.1
2023-11-18T09:08:19.450Z,48.6
2023-11-18T09:09:32.705Z,58
2023-11-18T09:10:46.944Z,66.2
2023-11-18T09:13:15.422Z,47
2023-11-18T09:14:29.661Z,40.7
2023-11-18T09:15:43.901Z,42.2
2023-11-18T09:16:58.140Z,41.2
2023-11-18T09:18:12.378Z,42.8
2023-11-18T09:19:26.617Z,40.7
2023-11-18T09:20:40.856Z,45.1
2023-11-18T09:21:55.095Z,39.6
2023-11-18T09:23:09.334Z,40.6
2023-11-18T09:24:23.573Z,43
2023-11-18T09:25:36.828Z,42.5
2023-11-18T09:26:51.067Z,45.4
2023-11-18T09:28:05.306Z,51.4
2023-11-18T09:29:19.545Z,62.5
2023-11-18T09:30:33.784Z,62.1
2023-11-18T09:31:48.022Z,41.4
2023-11-18T09:33:02.261Z,60.7
2023-11-18T09:34:16.501Z,42.3
2023-11-18T09:35:30.741Z,60.4
2023-11-18T09:36:44.980Z,60.7
2023-11-18T09:37:59.219Z,60.2
2023-11-18T09:39:13.458Z,63
2023-11-18T09:40:27.697Z,60.4
2023-11-18T09:41:40.952Z,48.9
2023-11-18T09:42:55.191Z,45.2
2023-11-18T09:44:09.429Z,39.7
2023-11-18T09:45:23.669Z,39.6
2023-11-18T09:46:37.908Z,40.2
2023-11-18T09:47:52.147Z,40.1
2023-11-18T09:49:06.386Z,51.2
2023-11-18T09:50:20.624Z,39.9
2023-11-18T09:51:34.863Z,45.4
2023-11-18T09:54:03.341Z,61
2023-11-18T09:55:17.581Z,60.5
2023-11-18T09:56:31.820Z,51.7
2023-11-18T09:57:45.075Z,59.1
2023-11-18T09:58:59.314Z,58
2023-11-18T10:00:13.553Z,47.5
2023-11-18T10:01:27.791Z,60.5
2023-11-18T10:02:42.030Z,59.7
2023-11-18T10:03:56.269Z,45.6
2023-11-18T10:05:10.508Z,40.1
2023-11-18T10:06:24.748Z,38.9
2023-11-18T10:07:38.987Z,46.5
2023-11-18T10:08:53.226Z,39.6
2023-11-18T10:10:07.465Z,44.7
2023-11-18T10:11:21.704Z,47
2023-11-18T10:13:50.182Z,42.5
2023-11-18T10:15:03.437Z,43.3
2023-11-18T10:16:17.676Z,51.4
2023-11-18T10:17:31.915Z,49.9
2023-11-18T10:18:46.154Z,40.1
2023-11-18T10:20:00.393Z,47.8
2023-11-18T10:21:14.632Z,42.3
2023-11-18T10:22:28.871Z,46.7
2023-11-18T10:23:43.111Z,42.8
2023-11-18T10:24:57.350Z,43.9
2023-11-18T10:26:11.589Z,43.6
2023-11-18T10:27:25.828Z,40.1
2023-11-18T10:28:40.067Z,42.3
2023-11-18T10:31:08.545Z,53.1
2023-11-18T10:32:21.800Z,48.1
2023-11-18T10:33:36.039Z,42
2023-11-18T10:34:50.278Z,41.7
2023-11-18T10:36:04.517Z,42.5
2023-11-18T10:37:18.756Z,48.6
2023-11-18T10:38:32.995Z,39.9
2023-11-18T10:41:01.473Z,57.5
2023-11-18T10:42:15.711Z,39.4
2023-11-18T10:43:29.950Z,46.5
2023-11-18T10:44:44.189Z,51.2
2023-11-18T10:45:58.428Z,60.4
2023-11-18T10:47:12.667Z,48.8
2023-11-18T10:48:25.922Z,43.1
2023-11-18T10:49:40.162Z,44.3
2023-11-18T10:50:54.401Z,45.1
2023-11-18T10:52:08.640Z,47.5
2023-11-18T10:53:22.879Z,51.2
2023-11-18T10:54:37.118Z,49.1
2023-11-18T10:55:51.356Z,47
2023-11-18T10:57:05.595Z,58.1
2023-11-18T10:58:19.834Z,50.4
2023-11-18T10:59:34.074Z,47.6
2023-11-18T11:00:48.313Z,57.3
2023-11-18T11:02:02.552Z,50.5
2023-11-18T11:03:16.791Z,44.4
2023-11-18T11:04:30.046Z,60.2
2023-11-18T11:05:44.285Z,55.7
2023-11-18T11:06:58.524Z,55.1
2023-11-18T11:08:12.763Z,40.4
2023-11-18T11:09:27.002Z,42.8
2023-11-18T11:10:41.241Z,55.7
2023-11-18T11:11:55.480Z,46
2023-11-18T11:13:09.719Z,44.4
2023-11-18T11:14:23.958Z,40.9
2023-11-18T11:15:38.197Z,45.1
2023-11-18T11:16:52.436Z,42.7
2023-11-18T11:18:06.675Z,44.9
2023-11-18T11:19:20.914Z,39.4
2023-11-18T11:20:34.169Z,42.3
2023-11-18T11:21:48.408Z,38.9
2023-11-18T11:23:02.647Z,44.7
2023-11-18T11:24:16.886Z,41.4
2023-11-18T11:25:31.125Z,39.4
2023-11-18T11:26:45.364Z,39.7
2023-11-18T11:27:59.604Z,42.8
2023-11-18T11:29:13.843Z,45.9
2023-11-18T11:30:28.082Z,49.4
2023-11-18T11:32:56.560Z,46
2023-11-18T11:34:10.799Z,40.9
2023-11-18T11:35:25.038Z,43
2023-11-18T11:36:38.293Z,42.2
2023-11-18T11:37:52.532Z,44.4
2023-11-18T11:41:35.249Z,40.1
2023-11-18T11:42:48.510Z,40.4
2023-11-18T11:44:01.765Z,41.7
2023-11-18T11:45:16.004Z,44.4
2023-11-18T11:46:30.243Z,43.6
2023-11-18T11:47:44.482Z,42.5
2023-11-18T11:48:58.721Z,41.4
2023-11-18T11:50:12.960Z,41.5
2023-11-18T11:51:27.199Z,43.9
2023-11-18T11:52:41.439Z,56.5
2023-11-18T11:53:55.678Z,50.2
2023-11-18T11:55:08.938Z,43.1
2023-11-18T11:56:22.193Z,41.8
2023-11-18T11:57:36.433Z,44.6
2023-11-18T11:58:50.672Z,43.1
2023-11-18T12:00:04.911Z,43.6
2023-11-18T12:01:19.150Z,44.6
2023-11-18T12:02:33.389Z,41.2
2023-11-18T12:03:47.628Z,42
2023-11-18T12:05:01.867Z,41.4
2023-11-18T12:06:16.106Z,44.9
2023-11-18T12:07:30.346Z,40.7
2023-11-18T12:08:44.585Z,41.5
2023-11-18T12:09:58.824Z,40.9
2023-11-18T12:11:13.063Z,40.4
2023-11-18T12:12:26.318Z,43.5
2023-11-18T12:13:40.557Z,40.2
2023-11-18T12:14:54.796Z,42.2
2023-11-18T12:16:09.035Z,46.8
2023-11-18T12:17:23.274Z,43
2023-11-18T12:18:37.513Z,41.4
2023-11-18T12:19:51.752Z,45.7
2023-11-18T12:21:05.991Z,43.5
2023-11-18T12:23:34.469Z,41
2023-11-18T12:24:48.708Z,42
2023-11-18T12:26:02.947Z,40.9
2023-11-18T12:27:17.186Z,40.7
2023-11-18T12:28:30.441Z,39.6
2023-11-18T12:29:44.681Z,41
2023-11-18T12:32:13.159Z,43.1
2023-11-18T12:33:27.398Z,41.5
2023-11-18T12:34:41.637Z,40.4
2023-11-18T12:35:55.876Z,40.2
2023-11-18T12:37:10.115Z,46.4
2023-11-18T12:38:24.354Z,41.8
2023-11-18T12:39:38.593Z,44.7
2023-11-18T12:40:52.832Z,41.4
2023-11-18T12:43:21.310Z,40.2
2023-11-18T12:44:34.571Z,43.1
2023-11-18T12:45:47.826Z,43.5
2023-11-18T12:47:02.065Z,40.9
2023-11-18T12:48:16.304Z,45.7
2023-11-18T12:49:30.543Z,41
2023-11-18T12:50:44.782Z,41.8
2023-11-18T12:51:59.021Z,44.7
2023-11-18T12:53:13.260Z,47.8
2023-11-18T12:54:27.499Z,40.2
2023-11-18T12:55:41.738Z,41.2
2023-11-18T12:56:54.999Z,40.2
2023-11-18T12:58:08.254Z,40.6
2023-11-18T12:59:22.493Z,40.4
2023-11-18T13:00:36.732Z,41.2
2023-11-18T13:01:49.992Z,40.6
2023-11-18T13:03:04.231Z,40.2
2023-11-18T13:04:18.470Z,42
2023-11-18T13:05:32.709Z,40.2
2023-11-18T13:06:46.948Z,38.8
2023-11-18T13:08:01.187Z,39.6
2023-11-18T13:09:15.426Z,45.7
2023-11-18T13:10:29.665Z,38.8
2023-11-18T13:11:43.904Z,37.8
2023-11-18T13:12:58.143Z,39.4
2023-11-18T13:14:12.382Z,38.1
2023-11-18T13:15:26.622Z,40.1
2023-11-18T13:16:40.861Z,48.3
2023-11-18T13:17:54.116Z,39.4
2023-11-18T13:19:08.356Z,39.6
2023-11-18T13:20:22.595Z,48.3
2023-11-18T13:21:36.834Z,41.8
2023-11-18T13:22:51.073Z,39.6
2023-11-18T13:25:19.551Z,50.4
2023-11-18T13:26:33.790Z,41
2023-11-18T13:27:48.029Z,40.7
2023-11-18T13:29:02.268Z,41
2023-11-18T13:30:16.507Z,40.2
2023-11-18T13:31:30.746Z,40.9
2023-11-18T13:35:13.463Z,40.1
2023-11-18T13:36:26.723Z,40.7
2023-11-18T13:37:39.978Z,49.1
2023-11-18T13:38:54.218Z,44.4
2023-11-18T13:40:08.457Z,42.3
2023-11-18T13:41:22.696Z,45.4
2023-11-18T13:42:36.935Z,40.2
2023-11-18T13:43:51.174Z,46.5
2023-11-18T13:46:19.652Z,42
2023-11-18T13:47:33.891Z,44.1
2023-11-18T13:48:48.130Z,40.1
2023-11-18T13:50:02.369Z,47.2
2023-11-18T13:52:30.847Z,58.3
2023-11-18T13:54:58.347Z,47
2023-11-18T13:56:11.607Z,40.4
2023-11-18T13:57:24.867Z,40.2
2023-11-18T13:58:38.123Z,47.6
2023-11-18T13:59:52.362Z,49.9
2023-11-18T14:01:06.601Z,42.7
2023-11-18T14:02:20.840Z,42.8
2023-11-18T14:03:35.079Z,63
2023-11-18T14:04:49.318Z,64.1
2023-11-18T14:06:03.557Z,63.8
2023-11-18T14:07:17.797Z,61.8
2023-11-18T14:08:32.036Z,62.1
2023-11-18T14:09:45.296Z,61.5
2023-11-18T14:10:58.551Z,60.5
2023-11-18T14:12:12.791Z,59.6
2023-11-18T14:13:27.030Z,59.7
2023-11-18T14:14:41.269Z,60.4
2023-11-18T14:15:55.508Z,51.4
2023-11-18T14:17:09.748Z,47
2023-11-18T14:18:23.987Z,43.6
2023-11-18T14:19:38.226Z,41
2023-11-18T14:20:52.465Z,45.2
2023-11-18T14:22:05.725Z,60.7
2023-11-18T14:23:18.986Z,60.2
2023-11-18T14:24:32.241Z,60.5
2023-11-18T14:25:46.480Z,62.5
2023-11-18T14:27:00.720Z,61
2023-11-18T14:28:14.959Z,58.3
2023-11-18T14:29:29.198Z,63.8
2023-11-18T14:30:43.438Z,41.8
2023-11-18T14:31:57.677Z,54.6
2023-11-18T14:33:11.916Z,46.8
2023-11-18T14:34:26.155Z,69.4
2023-11-18T14:36:54.634Z,46.5
2023-11-18T14:38:08.873Z,42
2023-11-18T14:39:23.113Z,51.8
2023-11-18T14:40:36.368Z,43.1
2023-11-18T14:41:50.608Z,61
2023-11-18T14:43:04.847Z,55.1
2023-11-18T14:44:19.086Z,42.3
2023-11-18T14:45:33.325Z,42
2023-11-18T14:46:47.565Z,44.6
2023-11-18T14:48:01.804Z,42.2
2023-11-18T14:49:15.065Z,43.8
2023-11-18T14:50:28.320Z,43.3
2023-11-18T14:52:56.799Z,44.1
2023-11-18T14:54:11.038Z,42.5
2023-11-18T14:55:25.278Z,43.9
2023-11-18T14:56:39.517Z,44.1
2023-11-18T14:57:53.756Z,54.9
2023-11-18T14:59:07.996Z,44.1
2023-11-18T15:00:22.235Z,45.6
2023-11-18T15:01:36.474Z,44.7
2023-11-18T15:02:50.714Z,43.9
2023-11-18T15:04:04.953Z,67.8
2023-11-18T15:05:19.192Z,44.4
2023-11-18T15:06:32.448Z,43.8
2023-11-18T15:07:46.687Z,61.3
2023-11-18T15:09:00.926Z,62.8
2023-11-18T15:10:15.166Z,60.4
2023-11-18T15:11:29.405Z,48.3
2023-11-18T15:12:43.644Z,48.9
2023-11-18T15:13:57.884Z,45.9
2023-11-18T15:15:11.144Z,47.6
2023-11-18T15:16:24.400Z,48.6
2023-11-18T15:17:38.639Z,47
2023-11-18T15:18:52.878Z,46.4
2023-11-18T15:20:07.117Z,46.2
2023-11-18T15:21:21.356Z,46
2023-11-18T15:22:35.596Z,61.5
2023-11-18T15:23:49.835Z,60.2
2023-11-18T15:25:04.074Z,43.3
2023-11-18T15:26:18.314Z,44.3
2023-11-18T15:27:32.553Z,44.6
2023-11-18T15:28:46.792Z,45.6
2023-11-18T15:30:01.031Z,46.4
2023-11-18T15:31:15.271Z,50.1
2023-11-18T15:32:28.526Z,54.3
2023-11-18T15:33:42.765Z,44.9
2023-11-18T15:34:57.005Z,44.3
2023-11-18T15:36:11.244Z,43.6
2023-11-18T15:37:25.483Z,46
2023-11-18T15:38:39.722Z,45.1
2023-11-18T15:39:54.016Z,44.7
2023-11-18T15:41:08.309Z,44.1
2023-11-18T15:42:22.603Z,46.7
2023-11-18T15:43:36.896Z,50.1
2023-11-18T15:44:51.189Z,45.1
2023-11-18T15:46:05.482Z,47.5
2023-11-18T15:47:19.776Z,45.1
2023-11-18T15:48:33.085Z,44.4
2023-11-18T15:49:47.378Z,43.5
2023-11-18T15:51:01.672Z,43.9
2023-11-18T15:52:15.965Z,44.6
2023-11-18T15:53:30.258Z,44.3
2023-11-18T15:54:44.551Z,44.3
2023-11-18T15:55:58.844Z,44.3
2023-11-18T15:57:13.138Z,50.7
2023-11-18T15:58:27.431Z,49.3
2023-11-18T15:59:41.725Z,45.9
2023-11-18T16:00:56.018Z,43.8
2023-11-18T16:02:10.311Z,45.1
2023-11-18T16:03:24.604Z,43.6
2023-11-18T16:04:37.914Z,45.9
2023-11-18T16:05:52.207Z,46.4
2023-11-18T16:07:06.500Z,43.5
2023-11-18T16:08:20.793Z,44.3
2023-11-18T16:09:35.087Z,43.1
2023-11-18T16:10:49.380Z,42.8
2023-11-18T16:12:03.673Z,42.7
2023-11-18T16:13:17.967Z,42.8
2023-11-18T16:14:32.260Z,43
2023-11-18T16:15:46.553Z,42.8
2023-11-18T16:17:00.846Z,43.5
2023-11-18T16:18:15.140Z,47
2023-11-18T16:19:29.433Z,45.7
2023-11-18T16:20:42.743Z,44.9
2023-11-18T16:21:57.036Z,43.3
2023-11-18T16:23:11.329Z,48
2023-11-18T16:24:25.622Z,43.5
2023-11-18T16:25:39.916Z,43
2023-11-18T16:26:54.209Z,42.8
2023-11-18T16:28:08.502Z,42.7
2023-11-18T16:29:22.795Z,43.1
2023-11-18T16:30:37.089Z,43
2023-11-18T16:31:51.382Z,47.5
2023-11-18T16:33:05.676Z,46.5
2023-11-18T16:34:19.969Z,44.9
2023-11-18T16:35:34.262Z,42.7
2023-11-18T16:36:47.571Z,44.1
2023-11-18T16:38:01.864Z,43
2023-11-18T16:39:16.158Z,42.7
2023-11-18T16:40:30.451Z,44.7
2023-11-18T16:41:44.744Z,43.1
2023-11-18T16:42:59.038Z,42.7
2023-11-18T16:44:13.331Z,49.6
2023-11-18T16:45:27.624Z,42.7
2023-11-18T16:46:41.917Z,42.3
2023-11-18T16:47:56.211Z,43.6
2023-11-18T16:49:10.504Z,47.3
2023-11-18T16:50:24.797Z,49.1
2023-11-18T16:51:39.091Z,43.3
2023-11-18T16:52:52.400Z,42.3
2023-11-18T16:54:06.693Z,42.2
2023-11-18T16:55:20.987Z,42.3
2023-11-18T16:56:35.280Z,43.8
2023-11-18T16:57:49.573Z,42
2023-11-18T16:59:03.866Z,42.2
2023-11-18T17:00:18.159Z,48.1
2023-11-18T17:01:32.453Z,45.4
2023-11-18T17:02:46.746Z,45.1
2023-11-18T17:04:01.039Z,44.3
2023-11-18T17:05:15.333Z,44.4
2023-11-18T17:06:29.626Z,42.5
2023-11-18T17:07:43.919Z,43.8
2023-11-18T17:08:57.229Z,42.3
2023-11-18T17:10:10.543Z,41.7
2023-11-18T17:11:24.836Z,42.2
2023-11-18T17:12:39.130Z,43.9
2023-11-18T17:13:53.423Z,43.8
2023-11-18T17:15:07.717Z,44.1
2023-11-18T17:16:22.010Z,48.3